sensor_id;sensor_type;location;lat;lon;timestamp;pressure;altitude;pressure_sealevel;temperature;humidity
23363;BME280;11853;48.080;11.960;2024-02-15T00:00:41;95331.63;;;9.03;96.44
23363;BME280;11853;48.080;11.960;2024-02-15T00:03:10;95325.75;;;9.00;96.66
23363;BME280;11853;48.080;11.960;2024-02-15T00:05:39;95336.34;;;9.00;95.88
23363;BME280;11853;48.080;11.960;2024-02-15T00:08:05;95324.94;;;8.99;96.37
23363;BME280;11853;48.080;11.960;2024-02-15T00:10:31;95324.94;;;8.99;96.49
23363;BME280;11853;48.080;11.960;2024-02-15T00:12:58;95322.41;;;8.98;96.65
23363;BME280;11853;48.080;11.960;2024-02-15T00:15:24;95315.44;;;8.97;96.60
23363;BME280;11853;48.080;11.960;2024-02-15T00:17:49;95320.16;;;8.93;97.09
23363;BME280;11853;48.080;11.960;2024-02-15T00:20:15;95317.53;;;8.93;96.47
23363;BME280;11853;48.080;11.960;2024-02-15T00:22:43;95313.06;;;8.94;96.28
23363;BME280;11853;48.080;11.960;2024-02-15T00:25:09;95308.06;;;9.00;96.60
23363;BME280;11853;48.080;11.960;2024-02-15T00:27:36;95308.91;;;9.01;97.07
23363;BME280;11853;48.080;11.960;2024-02-15T00:30:03;95301.75;;;8.92;96.84
23363;BME280;11853;48.080;11.960;2024-02-15T00:32:35;95298.28;;;8.91;97.81
23363;BME280;11853;48.080;11.960;2024-02-15T00:35:02;95309.56;;;8.93;98.11
23363;BME280;11853;48.080;11.960;2024-02-15T00:37:28;95309.97;;;8.89;98.61
23363;BME280;11853;48.080;11.960;2024-02-15T00:39:53;95313.69;;;8.86;98.37
23363;BME280;11853;48.080;11.960;2024-02-15T00:42:19;95320.09;;;8.84;98.82
23363;BME280;11853;48.080;11.960;2024-02-15T00:44:44;95313.97;;;8.83;99.18
23363;BME280;11853;48.080;11.960;2024-02-15T00:47:10;95320.34;;;8.80;100.00
23363;BME280;11853;48.080;11.960;2024-02-15T00:49:37;95320.34;;;8.80;98.51
23363;BME280;11853;48.080;11.960;2024-02-15T00:52:03;95322.31;;;8.78;98.61
23363;BME280;11853;48.080;11.960;2024-02-15T00:54:29;95317.03;;;8.78;97.84
23363;BME280;11853;48.080;11.960;2024-02-15T00:56:54;95327.34;;;8.82;96.74
23363;BME280;11853;48.080;11.960;2024-02-15T00:59:20;95313.41;;;8.79;96.75
23363;BME280;11853;48.080;11.960;2024-02-15T01:01:45;95322.31;;;8.78;97.34
23363;BME280;11853;48.080;11.960;2024-02-15T01:04:13;95317.25;;;8.75;96.50
23363;BME280;11853;48.080;11.960;2024-02-15T01:06:39;95319.78;;;8.77;95.74
23363;BME280;11853;48.080;11.960;2024-02-15T01:09:04;95313.97;;;8.83;96.15
23363;BME280;11853;48.080;11.960;2024-02-15T01:11:31;95305.56;;;8.78;95.89
23363;BME280;11853;48.080;11.960;2024-02-15T01:14:02;95308.63;;;8.73;96.99
23363;BME280;11853;48.080;11.960;2024-02-15T01:16:27;95310.00;;;8.68;97.79
23363;BME280;11853;48.080;11.960;2024-02-15T01:18:54;95317.78;;;8.69;98.26
23363;BME280;11853;48.080;11.960;2024-02-15T01:21:20;95320.88;;;8.74;96.93
23363;BME280;11853;48.080;11.960;2024-02-15T01:23:48;95318.13;;;8.76;97.83
23363;BME280;11853;48.080;11.960;2024-02-15T01:26:16;95312.47;;;8.69;97.75
23363;BME280;11853;48.080;11.960;2024-02-15T01:28:41;95315.00;;;8.71;98.07
23363;BME280;11853;48.080;11.960;2024-02-15T01:31:10;95311.53;;;8.70;97.95
23363;BME280;11853;48.080;11.960;2024-02-15T01:33:39;95308.91;;;8.70;97.72
23363;BME280;11853;48.080;11.960;2024-02-15T01:36:05;95305.28;;;8.71;98.08
23363;BME280;11853;48.080;11.960;2024-02-15T01:38:31;95307.78;;;8.73;97.50
23363;BME280;11853;48.080;11.960;2024-02-15T01:40:57;95302.63;;;8.71;97.00
23363;BME280;11853;48.080;11.960;2024-02-15T01:43:22;95297.34;;;8.71;97.00
23363;BME280;11853;48.080;11.960;2024-02-15T01:45:48;95297.44;;;8.70;97.63
23363;BME280;11853;48.080;11.960;2024-02-15T01:48:16;95295.41;;;8.73;97.93
23363;BME280;11853;48.080;11.960;2024-02-15T01:50:42;95294.69;;;8.71;97.29
23363;BME280;11853;48.080;11.960;2024-02-15T01:53:09;95292.88;;;8.72;97.98
23363;BME280;11853;48.080;11.960;2024-02-15T01:55:37;95289.13;;;8.74;97.25
23363;BME280;11853;48.080;11.960;2024-02-15T01:58:03;95287.47;;;8.73;96.89
23363;BME280;11853;48.080;11.960;2024-02-15T02:00:30;95295.13;;;8.76;96.63
23363;BME280;11853;48.080;11.960;2024-02-15T02:02:56;95293.34;;;8.77;95.72
23363;BME280;11853;48.080;11.960;2024-02-15T02:05:27;95285.00;;;8.82;95.08
23363;BME280;11853;48.080;11.960;2024-02-15T02:07:56;95287.78;;;8.80;95.32
23363;BME280;11853;48.080;11.960;2024-02-15T02:10:25;95281.34;;;8.73;95.55
23363;BME280;11853;48.080;11.960;2024-02-15T02:12:52;95276.88;;;8.73;96.11
23363;BME280;11853;48.080;11.960;2024-02-15T02:15:18;95271.59;;;8.73;95.07
23363;BME280;11853;48.080;11.960;2024-02-15T02:17:53;95274.38;;;8.72;95.01
23363;BME280;11853;48.080;11.960;2024-02-15T02:20:19;95279.66;;;8.72;96.15
23363;BME280;11853;48.080;11.960;2024-02-15T02:22:48;95275.19;;;8.72;96.13
23363;BME280;11853;48.080;11.960;2024-02-15T02:25:24;95280.47;;;8.72;97.19
23363;BME280;11853;48.080;11.960;2024-02-15T02:27:53;95277.16;;;8.70;97.10
23363;BME280;11853;48.080;11.960;2024-02-15T02:30:20;95279.91;;;8.69;97.09
23363;BME280;11853;48.080;11.960;2024-02-15T02:32:48;95284.91;;;8.62;97.62
23363;BME280;11853;48.080;11.960;2024-02-15T02:35:14;95284.19;;;8.60;98.68
23363;BME280;11853;48.080;11.960;2024-02-15T02:37:41;95274.59;;;8.59;97.79
23363;BME280;11853;48.080;11.960;2024-02-15T02:40:08;95274.31;;;8.62;98.32
23363;BME280;11853;48.080;11.960;2024-02-15T02:42:55;95272.88;;;8.58;98.59
23363;BME280;11853;48.080;11.960;2024-02-15T02:45:27;95274.84;;;8.56;98.28
23363;BME280;11853;48.080;11.960;2024-02-15T02:47:53;95272.06;;;8.57;98.27
23363;BME280;11853;48.080;11.960;2024-02-15T02:50:20;95267.59;;;8.58;98.60
23363;BME280;11853;48.080;11.960;2024-02-15T02:52:46;95279.59;;;8.62;98.54
23363;BME280;11853;48.080;11.960;2024-02-15T02:55:13;95275.25;;;8.61;98.41
23363;BME280;11853;48.080;11.960;2024-02-15T02:57:39;95276.25;;;8.60;98.16
23363;BME280;11853;48.080;11.960;2024-02-15T03:00:06;95267.59;;;8.58;98.92
23363;BME280;11853;48.080;11.960;2024-02-15T03:02:38;95268.94;;;8.52;99.37
23363;BME280;11853;48.080;11.960;2024-02-15T03:05:05;95270.25;;;8.58;99.70
23363;BME280;11853;48.080;11.960;2024-02-15T03:07:35;95279.03;;;8.59;99.68
23363;BME280;11853;48.080;11.960;2024-02-15T03:10:02;95273.28;;;8.53;100.00
23363;BME280;11853;48.080;11.960;2024-02-15T03:12:30;95274.84;;;8.56;99.92
23363;BME280;11853;48.080;11.960;2024-02-15T03:14:55;95272.78;;;8.60;100.00
23363;BME280;11853;48.080;11.960;2024-02-15T03:17:25;95267.34;;;8.61;99.92
23363;BME280;11853;48.080;11.960;2024-02-15T03:19:51;95269.88;;;8.63;98.86
23363;BME280;11853;48.080;11.960;2024-02-15T03:22:17;95265.41;;;8.63;99.85
23363;BME280;11853;48.080;11.960;2024-02-15T03:24:43;95264.00;;;8.59;99.56
23363;BME280;11853;48.080;11.960;2024-02-15T03:27:09;95264.94;;;8.58;99.80
23363;BME280;11853;48.080;11.960;2024-02-15T03:29:38;95272.06;;;8.57;99.81
23363;BME280;11853;48.080;11.960;2024-02-15T03:32:04;95272.88;;;8.58;99.42
23363;BME280;11853;48.080;11.960;2024-02-15T03:34:30;95275.53;;;8.58;97.81
23363;BME280;11853;48.080;11.960;2024-02-15T03:36:57;95274.84;;;8.56;99.08
23363;BME280;11853;48.080;11.960;2024-02-15T03:39:23;95280.81;;;8.58;99.36
23363;BME280;11853;48.080;11.960;2024-02-15T03:41:49;95274.44;;;8.61;99.39
23363;BME280;11853;48.080;11.960;2024-02-15T03:44:17;95276.13;;;8.62;98.98
23363;BME280;11853;48.080;11.960;2024-02-15T03:46:44;95273.34;;;8.63;99.07
23363;BME280;11853;48.080;11.960;2024-02-15T03:49:17;95279.03;;;8.59;99.77
23363;BME280;11853;48.080;11.960;2024-02-15T03:51:43;95281.78;;;8.57;100.00
23363;BME280;11853;48.080;11.960;2024-02-15T03:54:10;95279.97;;;8.57;100.00
23363;BME280;11853;48.080;11.960;2024-02-15T03:56:36;95272.88;;;8.58;100.00
23363;BME280;11853;48.080;11.960;2024-02-15T03:59:02;95271.22;;;8.57;100.00
23363;BME280;11853;48.080;11.960;2024-02-15T04:01:30;95274.59;;;8.59;100.00
23363;BME280;11853;48.080;11.960;2024-02-15T04:03:59;95271.09;;;8.59;100.00
23363;BME280;11853;48.080;11.960;2024-02-15T04:06:25;95281.53;;;8.60;100.00
23363;BME280;11853;48.080;11.960;2024-02-15T04:08:53;95274.31;;;8.62;100.00
23363;BME280;11853;48.080;11.960;2024-02-15T04:11:19;95269.75;;;8.64;100.00
23363;BME280;11853;48.080;11.960;2024-02-15T04:13:45;95270.44;;;8.66;100.00
23363;BME280;11853;48.080;11.960;2024-02-15T04:16:11;95267.09;;;8.64;100.00
23363;BME280;11853;48.080;11.960;2024-02-15T04:18:36;95279.09;;;8.68;100.00
23363;BME280;11853;48.080;11.960;2024-02-15T04:21:03;95282.44;;;8.70;99.65
23363;BME280;11853;48.080;11.960;2024-02-15T04:23:31;95285.09;;;8.70;99.25
23363;BME280;11853;48.080;11.960;2024-02-15T04:26:06;95282.97;;;8.64;100.00
23363;BME280;11853;48.080;11.960;2024-02-15T04:28:32;95286.56;;;8.63;100.00
23363;BME280;11853;48.080;11.960;2024-02-15T04:30:58;95287.53;;;8.62;100.00
23363;BME280;11853;48.080;11.960;2024-02-15T04:33:24;95285.47;;;8.66;97.91
23363;BME280;11853;48.080;11.960;2024-02-15T04:35:50;95284.47;;;8.67;97.79
23363;BME280;11853;48.080;11.960;2024-02-15T04:38:16;95275.88;;;8.65;98.64
23363;BME280;11853;48.080;11.960;2024-02-15T04:40:44;95283.72;;;8.55;98.79
23363;BME280;11853;48.080;11.960;2024-02-15T04:43:10;95285.94;;;8.50;99.02
23363;BME280;11853;48.080;11.960;2024-02-15T04:45:36;95290.25;;;8.51;98.93
23363;BME280;11853;48.080;11.960;2024-02-15T04:48:01;95294.81;;;8.49;98.93
23363;BME280;11853;48.080;11.960;2024-02-15T04:50:29;95286.31;;;8.45;99.62
23363;BME280;11853;48.080;11.960;2024-02-15T04:52:55;95287.16;;;8.46;99.57
23363;BME280;11853;48.080;11.960;2024-02-15T04:55:21;95293.41;;;8.45;99.16
23363;BME280;11853;48.080;11.960;2024-02-15T04:57:49;95284.38;;;8.47;98.29
23363;BME280;11853;48.080;11.960;2024-02-15T05:00:15;95291.47;;;8.47;99.29
23363;BME280;11853;48.080;11.960;2024-02-15T05:02:42;95285.34;;;8.46;99.00
23363;BME280;11853;48.080;11.960;2024-02-15T05:05:10;95295.53;;;8.51;98.43
23363;BME280;11853;48.080;11.960;2024-02-15T05:07:38;95291.91;;;8.52;98.30
23363;BME280;11853;48.080;11.960;2024-02-15T05:10:05;95282.31;;;8.51;98.37
23363;BME280;11853;48.080;11.960;2024-02-15T05:12:32;95279.69;;;8.51;99.04
23363;BME280;11853;48.080;11.960;2024-02-15T05:14:59;95287.47;;;8.52;99.33
23363;BME280;11853;48.080;11.960;2024-02-15T05:17:25;95271.84;;;8.49;99.60
23363;BME280;11853;48.080;11.960;2024-02-15T05:19:51;95279.22;;;8.46;100.00
23363;BME280;11853;48.080;11.960;2024-02-15T05:22:16;95281.75;;;8.47;100.00
23363;BME280;11853;48.080;11.960;2024-02-15T05:24:45;95280.66;;;8.50;100.00
23363;BME280;11853;48.080;11.960;2024-02-15T05:27:11;95279.47;;;8.43;100.00
23363;BME280;11853;48.080;11.960;2024-02-15T05:29:38;95279.59;;;8.41;100.00
23363;BME280;11853;48.080;11.960;2024-02-15T05:32:05;95275.66;;;8.35;100.00
23363;BME280;11853;48.080;11.960;2024-02-15T05:34:31;95272.16;;;8.35;99.93
23363;BME280;11853;48.080;11.960;2024-02-15T05:36:57;95266.28;;;8.31;100.00
23363;BME280;11853;48.080;11.960;2024-02-15T05:39:25;95263.31;;;8.25;100.00
23363;BME280;11853;48.080;11.960;2024-02-15T05:41:51;95271.84;;;8.28;100.00
23363;BME280;11853;48.080;11.960;2024-02-15T05:44:17;95280.34;;;8.32;99.66
23363;BME280;11853;48.080;11.960;2024-02-15T05:46:46;95275.31;;;8.29;100.00
23363;BME280;11853;48.080;11.960;2024-02-15T05:49:12;95272.81;;;8.27;100.00
23363;BME280;11853;48.080;11.960;2024-02-15T05:51:43;95269.44;;;8.25;99.79
23363;BME280;11853;48.080;11.960;2024-02-15T05:54:09;95273.75;;;8.26;99.87
23363;BME280;11853;48.080;11.960;2024-02-15T05:56:35;95278.22;;;8.26;100.00
23363;BME280;11853;48.080;11.960;2024-02-15T05:59:00;95275.72;;;8.24;100.00
23363;BME280;11853;48.080;11.960;2024-02-15T06:01:28;95284.84;;;8.20;100.00
23363;BME280;11853;48.080;11.960;2024-02-15T06:03:54;95277.44;;;8.14;100.00
23363;BME280;11853;48.080;11.960;2024-02-15T06:06:21;95283.09;;;8.09;100.00
23363;BME280;11853;48.080;11.960;2024-02-15T06:08:47;95283.22;;;8.08;100.00
23363;BME280;11853;48.080;11.960;2024-02-15T06:11:18;95284.19;;;8.07;99.85
23363;BME280;11853;48.080;11.960;2024-02-15T06:13:45;95273.84;;;8.04;100.00
23363;BME280;11853;48.080;11.960;2024-02-15T06:16:11;95280.00;;;8.04;100.00
23363;BME280;11853;48.080;11.960;2024-02-15T06:18:37;95271.03;;;7.96;100.00
23363;BME280;11853;48.080;11.960;2024-02-15T06:21:03;95283.13;;;7.98;100.00
23363;BME280;11853;48.080;11.960;2024-02-15T06:23:29;95283.28;;;7.97;100.00
23363;BME280;11853;48.080;11.960;2024-02-15T06:25:56;95287.13;;;7.93;100.00
23363;BME280;11853;48.080;11.960;2024-02-15T06:28:23;95281.84;;;7.93;100.00
23363;BME280;11853;48.080;11.960;2024-02-15T06:31:07;95278.25;;;7.94;100.00
23363;BME280;11853;48.080;11.960;2024-02-15T06:33:52;95285.19;;;7.95;100.00
23363;BME280;11853;48.080;11.960;2024-02-15T06:36:57;95288.28;;;8.00;100.00
23363;BME280;11853;48.080;11.960;2024-02-15T06:39:41;95281.84;;;7.93;100.00
23363;BME280;11853;48.080;11.960;2024-02-15T06:42:11;95286.16;;;7.94;100.00
23363;BME280;11853;48.080;11.960;2024-02-15T06:44:37;95282.94;;;7.90;100.00
23363;BME280;11853;48.080;11.960;2024-02-15T06:47:06;95289.38;;;7.97;100.00
23363;BME280;11853;48.080;11.960;2024-02-15T06:49:32;95281.09;;;8.02;99.38
23363;BME280;11853;48.080;11.960;2024-02-15T06:51:59;95289.72;;;8.04;99.87
23363;BME280;11853;48.080;11.960;2024-02-15T06:54:27;95292.56;;;8.12;100.00
23363;BME280;11853;48.080;11.960;2024-02-15T06:56:53;95304.31;;;8.19;100.00
23363;BME280;11853;48.080;11.960;2024-02-15T06:59:20;95304.50;;;8.39;99.34
23363;BME280;11853;48.080;11.960;2024-02-15T07:01:50;95297.91;;;8.96;97.48
23363;BME280;11853;48.080;11.960;2024-02-15T07:04:18;95298.94;;;9.55;93.40
23363;BME280;11853;48.080;11.960;2024-02-15T07:06:44;95302.53;;;9.94;89.71
23363;BME280;11853;48.080;11.960;2024-02-15T07:09:13;95296.53;;;10.11;87.68
23363;BME280;11853;48.080;11.960;2024-02-15T07:11:44;95300.91;;;10.32;86.46
23363;BME280;11853;48.080;11.960;2024-02-15T07:14:14;95300.59;;;10.54;85.45
23363;BME280;11853;48.080;11.960;2024-02-15T07:16:46;95297.94;;;10.74;83.60
23363;BME280;11853;48.080;11.960;2024-02-15T07:19:13;95308.22;;;10.87;81.94
23363;BME280;11853;48.080;11.960;2024-02-15T07:21:38;95295.50;;;11.00;80.74
23363;BME280;11853;48.080;11.960;2024-02-15T07:24:05;95309.53;;;11.20;79.95
23363;BME280;11853;48.080;11.960;2024-02-15T07:26:30;95286.88;;;11.25;79.40
23363;BME280;11853;48.080;11.960;2024-02-15T07:28:57;95303.06;;;11.32;78.77
23363;BME280;11853;48.080;11.960;2024-02-15T07:31:23;95297.75;;;11.32;78.44
23363;BME280;11853;48.080;11.960;2024-02-15T07:33:50;95301.41;;;11.31;77.79
23363;BME280;11853;48.080;11.960;2024-02-15T07:36:23;95299.97;;;11.37;77.90
23363;BME280;11853;48.080;11.960;2024-02-15T07:38:53;95293.66;;;11.47;77.49
23363;BME280;11853;48.080;11.960;2024-02-15T07:41:21;95282.78;;;11.59;76.40
23363;BME280;11853;48.080;11.960;2024-02-15T07:43:48;95286.75;;;11.82;70.92
23363;BME280;11853;48.080;11.960;2024-02-15T07:46:26;95286.88;;;11.90;71.11
23363;BME280;11853;48.080;11.960;2024-02-15T07:48:52;95284.00;;;11.74;71.31
23363;BME280;11853;48.080;11.960;2024-02-15T07:51:26;95292.06;;;11.55;70.40
23363;BME280;11853;48.080;11.960;2024-02-15T07:53:58;95283.09;;;11.56;69.71
23363;BME280;11853;48.080;11.960;2024-02-15T07:56:51;95285.22;;;11.52;70.30
23363;BME280;11853;48.080;11.960;2024-02-15T07:59:17;95285.69;;;11.47;68.46
23363;BME280;11853;48.080;11.960;2024-02-15T08:01:43;95281.31;;;11.46;67.48
23363;BME280;11853;48.080;11.960;2024-02-15T08:04:11;95284.53;;;11.50;66.90
23363;BME280;11853;48.080;11.960;2024-02-15T08:06:37;95280.63;;;11.72;67.31
23363;BME280;11853;48.080;11.960;2024-02-15T08:09:04;95275.63;;;11.97;65.01
23363;BME280;11853;48.080;11.960;2024-02-15T08:11:58;95276.47;;;12.51;61.41
23363;BME280;11853;48.080;11.960;2024-02-15T08:14:49;95270.84;;;12.80;61.39
23363;BME280;11853;48.080;11.960;2024-02-15T08:17:25;95279.34;;;13.10;60.15
23363;BME280;11853;48.080;11.960;2024-02-15T08:19:51;95274.22;;;13.77;57.45
23363;BME280;11853;48.080;11.960;2024-02-15T08:22:17;95273.88;;;14.55;56.03
23363;BME280;11853;48.080;11.960;2024-02-15T08:24:45;95274.16;;;15.25;52.15
23363;BME280;11853;48.080;11.960;2024-02-15T08:27:11;95271.50;;;15.73;51.18
23363;BME280;11853;48.080;11.960;2024-02-15T08:29:36;95269.69;;;16.28;50.40
23363;BME280;11853;48.080;11.960;2024-02-15T08:32:02;95268.84;;;16.96;48.12
23363;BME280;11853;48.080;11.960;2024-02-15T08:34:28;95253.72;;;17.33;45.76
23363;BME280;11853;48.080;11.960;2024-02-15T08:36:54;95258.44;;;17.75;46.30
23363;BME280;11853;48.080;11.960;2024-02-15T08:39:19;95258.56;;;18.18;45.66
23363;BME280;11853;48.080;11.960;2024-02-15T08:41:47;95249.13;;;18.44;44.06
23363;BME280;11853;48.080;11.960;2024-02-15T08:44:26;95249.94;;;18.81;44.82
23363;BME280;11853;48.080;11.960;2024-02-15T08:46:56;95252.94;;;19.21;42.98
23363;BME280;11853;48.080;11.960;2024-02-15T08:49:22;95253.50;;;19.44;42.03
23363;BME280;11853;48.080;11.960;2024-02-15T08:51:47;95252.94;;;19.55;41.33
23363;BME280;11853;48.080;11.960;2024-02-15T08:54:13;95253.81;;;19.63;41.69
23363;BME280;11853;48.080;11.960;2024-02-15T08:56:38;95255.97;;;19.74;42.82
23363;BME280;11853;48.080;11.960;2024-02-15T08:59:04;95250.94;;;20.06;43.11
23363;BME280;11853;48.080;11.960;2024-02-15T09:01:30;95251.94;;;20.66;40.55
23363;BME280;11853;48.080;11.960;2024-02-15T09:03:57;95247.81;;;20.70;39.52
23363;BME280;11853;48.080;11.960;2024-02-15T09:06:22;95243.91;;;20.92;39.83
23363;BME280;11853;48.080;11.960;2024-02-15T09:08:48;95236.00;;;21.18;39.36
23363;BME280;11853;48.080;11.960;2024-02-15T09:11:13;95228.72;;;21.45;39.11
23363;BME280;11853;48.080;11.960;2024-02-15T09:13:39;95236.19;;;21.49;37.53
23363;BME280;11853;48.080;11.960;2024-02-15T09:16:05;95239.31;;;21.00;38.95
23363;BME280;11853;48.080;11.960;2024-02-15T09:18:31;95230.38;;;21.19;39.83
23363;BME280;11853;48.080;11.960;2024-02-15T09:21:04;95230.41;;;21.12;39.29
23363;BME280;11853;48.080;11.960;2024-02-15T09:23:30;95235.06;;;21.84;37.71
23363;BME280;11853;48.080;11.960;2024-02-15T09:25:56;95231.53;;;21.76;38.46
23363;BME280;11853;48.080;11.960;2024-02-15T09:28:22;95227.19;;;21.75;38.33
23363;BME280;11853;48.080;11.960;2024-02-15T09:30:49;95227.78;;;21.77;37.74
23363;BME280;11853;48.080;11.960;2024-02-15T09:33:18;95225.50;;;21.74;36.64
23363;BME280;11853;48.080;11.960;2024-02-15T09:35:44;95228.03;;;21.63;38.00
23363;BME280;11853;48.080;11.960;2024-02-15T09:38:10;95226.63;;;21.53;37.65
23363;BME280;11853;48.080;11.960;2024-02-15T09:40:35;95229.47;;;21.72;37.78
23363;BME280;11853;48.080;11.960;2024-02-15T09:43:01;95225.69;;;21.86;37.59
23363;BME280;11853;48.080;11.960;2024-02-15T09:45:27;95224.72;;;22.25;38.32
23363;BME280;11853;48.080;11.960;2024-02-15T09:47:53;95223.84;;;22.32;35.67
23363;BME280;11853;48.080;11.960;2024-02-15T09:50:19;95223.13;;;22.18;37.68
23363;BME280;11853;48.080;11.960;2024-02-15T09:52:52;95229.56;;;22.48;37.83
23363;BME280;11853;48.080;11.960;2024-02-15T09:55:18;95220.81;;;22.53;37.53
23363;BME280;11853;48.080;11.960;2024-02-15T09:57:45;95211.22;;;22.57;37.86
23363;BME280;11853;48.080;11.960;2024-02-15T10:00:14;95211.13;;;22.70;37.53
23363;BME280;11853;48.080;11.960;2024-02-15T10:02:41;95211.66;;;22.54;37.19
23363;BME280;11853;48.080;11.960;2024-02-15T10:05:10;95215.03;;;22.49;36.54
23363;BME280;11853;48.080;11.960;2024-02-15T10:07:42;95210.69;;;21.97;37.59
23363;BME280;11853;48.080;11.960;2024-02-15T10:10:37;95209.38;;;21.61;39.17
23363;BME280;11853;48.080;11.960;2024-02-15T10:13:03;95207.47;;;21.68;38.26
23363;BME280;11853;48.080;11.960;2024-02-15T10:15:37;95201.72;;;21.45;39.56
23363;BME280;11853;48.080;11.960;2024-02-15T10:18:07;95195.72;;;21.16;38.07
23363;BME280;11853;48.080;11.960;2024-02-15T10:20:34;95193.88;;;20.90;38.28
23363;BME280;11853;48.080;11.960;2024-02-15T10:25:32;95191.75;;;20.45;41.12
23363;BME280;11853;48.080;11.960;2024-02-15T10:28:08;95195.53;;;20.58;39.86
23363;BME280;11853;48.080;11.960;2024-02-15T10:30:35;95190.13;;;20.71;40.78
23363;BME280;11853;48.080;11.960;2024-02-15T10:33:02;95188.88;;;21.07;39.84
23363;BME280;11853;48.080;11.960;2024-02-15T10:35:28;95182.22;;;21.03;40.17
23363;BME280;11853;48.080;11.960;2024-02-15T10:38:05;95184.97;;;20.76;40.90
23363;BME280;11853;48.080;11.960;2024-02-15T10:40:33;95179.69;;;20.28;40.91
23363;BME280;11853;48.080;11.960;2024-02-15T10:42:59;95178.56;;;19.89;42.31
23363;BME280;11853;48.080;11.960;2024-02-15T10:45:25;95178.75;;;19.88;43.29
23363;BME280;11853;48.080;11.960;2024-02-15T10:47:51;95177.88;;;19.74;43.86
23363;BME280;11853;48.080;11.960;2024-02-15T10:50:17;95170.44;;;19.76;43.27
23363;BME280;11853;48.080;11.960;2024-02-15T10:52:57;95164.91;;;19.91;41.95
23363;BME280;11853;48.080;11.960;2024-02-15T10:55:53;95151.06;;;19.52;43.98
23363;BME280;11853;48.080;11.960;2024-02-15T10:58:20;95150.94;;;19.67;44.27
23363;BME280;11853;48.080;11.960;2024-02-15T11:00:49;95144.81;;;20.00;44.86
23363;BME280;11853;48.080;11.960;2024-02-15T11:03:25;95138.63;;;20.06;43.42
23363;BME280;11853;48.080;11.960;2024-02-15T11:05:52;95142.88;;;19.74;43.43
23363;BME280;11853;48.080;11.960;2024-02-15T11:08:20;95133.41;;;19.91;44.65
23363;BME280;11853;48.080;11.960;2024-02-15T11:10:48;95129.50;;;20.14;43.60
23363;BME280;11853;48.080;11.960;2024-02-15T11:13:14;95128.69;;;20.20;42.84
23363;BME280;11853;48.080;11.960;2024-02-15T11:15:47;95122.44;;;19.86;43.39
23363;BME280;11853;48.080;11.960;2024-02-15T11:18:42;95125.31;;;19.78;44.75
23363;BME280;11853;48.080;11.960;2024-02-15T11:21:57;95119.94;;;19.85;44.55
23363;BME280;11853;48.080;11.960;2024-02-15T11:23:57;95115.81;;;19.89;45.05
23363;BME280;11853;48.080;11.960;2024-02-15T11:26:45;95113.31;;;19.87;43.81
23363;BME280;11853;48.080;11.960;2024-02-15T11:29:52;95110.47;;;19.54;45.44
23363;BME280;11853;48.080;11.960;2024-02-15T11:32:41;95102.22;;;19.55;45.98
23363;BME280;11853;48.080;11.960;2024-02-15T11:35:25;95103.03;;;19.63;45.46
23363;BME280;11853;48.080;11.960;2024-02-15T11:37:54;95099.22;;;19.37;46.32
23363;BME280;11853;48.080;11.960;2024-02-15T11:40:28;95097.53;;;18.88;47.42
23363;BME280;11853;48.080;11.960;2024-02-15T11:43:00;95087.56;;;18.75;48.50
23363;BME280;11853;48.080;11.960;2024-02-15T11:45:29;95087.19;;;18.85;48.16
23363;BME280;11853;48.080;11.960;2024-02-15T11:48:11;95087.41;;;18.83;50.00
23363;BME280;11853;48.080;11.960;2024-02-15T11:50:38;95083.94;;;18.96;48.76
23363;BME280;11853;48.080;11.960;2024-02-15T11:53:08;95081.13;;;18.76;48.56
23363;BME280;11853;48.080;11.960;2024-02-15T11:55:38;95070.47;;;18.61;49.50
23363;BME280;11853;48.080;11.960;2024-02-15T11:58:04;95062.72;;;18.45;50.19
23363;BME280;11853;48.080;11.960;2024-02-15T12:00:41;95058.25;;;18.31;50.33
23363;BME280;11853;48.080;11.960;2024-02-15T12:03:25;95061.63;;;18.11;51.61
23363;BME280;11853;48.080;11.960;2024-02-15T12:06:09;95058.84;;;17.98;51.61
23363;BME280;11853;48.080;11.960;2024-02-15T12:08:54;95050.88;;;17.68;52.33
23363;BME280;11853;48.080;11.960;2024-02-15T12:11:39;95045.38;;;17.76;52.73
23363;BME280;11853;48.080;11.960;2024-02-15T12:14:24;95050.41;;;17.79;52.83
23363;BME280;11853;48.080;11.960;2024-02-15T12:17:13;95035.69;;;17.97;52.34
23363;BME280;11853;48.080;11.960;2024-02-15T12:20:00;95034.16;;;18.09;52.68
23363;BME280;11853;48.080;11.960;2024-02-15T12:22:36;95028.53;;;17.83;52.89
23363;BME280;11853;48.080;11.960;2024-02-15T12:25:06;95024.03;;;17.68;54.41
23363;BME280;11853;48.080;11.960;2024-02-15T12:27:39;95023.81;;;17.63;54.33
23363;BME280;11853;48.080;11.960;2024-02-15T12:30:05;95016.53;;;17.78;54.51
23363;BME280;11853;48.080;11.960;2024-02-15T12:32:32;95020.22;;;17.77;54.20
23363;BME280;11853;48.080;11.960;2024-02-15T12:35:14;95010.63;;;17.68;53.80
23363;BME280;11853;48.080;11.960;2024-02-15T12:40:38;95006.03;;;17.62;53.63
23363;BME280;11853;48.080;11.960;2024-02-15T12:43:07;95004.50;;;17.74;53.97
23363;BME280;11853;48.080;11.960;2024-02-15T12:45:37;95000.28;;;17.65;53.51
23363;BME280;11853;48.080;11.960;2024-02-15T12:48:04;95000.03;;;17.60;53.54
23363;BME280;11853;48.080;11.960;2024-02-15T12:50:31;95005.53;;;17.52;54.23
23363;BME280;11853;48.080;11.960;2024-02-15T12:52:57;94996.19;;;17.48;55.14
23363;BME280;11853;48.080;11.960;2024-02-15T12:55:32;95007.38;;;17.51;54.35
23363;BME280;11853;48.080;11.960;2024-02-15T12:58:03;94993.13;;;17.51;54.87
23363;BME280;11853;48.080;11.960;2024-02-15T13:00:32;94991.78;;;17.62;54.85
23363;BME280;11853;48.080;11.960;2024-02-15T13:03:01;94994.28;;;17.63;54.11
23363;BME280;11853;48.080;11.960;2024-02-15T13:05:30;94989.34;;;17.45;53.90
23363;BME280;11853;48.080;11.960;2024-02-15T13:07:57;94988.72;;;17.22;54.08
23363;BME280;11853;48.080;11.960;2024-02-15T13:10:31;94982.69;;;16.98;54.48